createdAt,value
2018-07-20T00:00:08.625Z,94.30
2018-07-20T00:02:36.768Z,94.30
2018-07-20T00:05:05.846Z,94.50
2018-07-20T00:07:34.007Z,94.60
2018-07-20T00:10:02.143Z,94.60
2018-07-20T00:12:30.302Z,94.60
2018-07-20T00:14:58.450Z,94.70
2018-07-20T00:17:26.605Z,94.60
2018-07-20T00:19:54.762Z,94.60
2018-07-20T00:24:51.034Z,95.00
2018-07-20T00:27:19.194Z,94.90
2018-07-20T00:29:47.342Z,95.10
2018-07-20T00:32:15.503Z,95.00
2018-07-20T00:34:43.655Z,95.10
2018-07-20T00:37:11.815Z,95.20
2018-07-20T00:39:39.967Z,95.20
2018-07-20T00:44:36.255Z,95.20
2018-07-20T00:47:04.409Z,95.10
2018-07-20T00:49:32.558Z,95.20
2018-07-20T00:52:00.718Z,95.40
2018-07-20T00:54:28.934Z,95.50
2018-07-20T00:56:57.126Z,95.50
2018-07-20T00:59:25.274Z,95.60
2018-07-20T01:01:53.442Z,95.60
2018-07-20T01:04:21.634Z,95.50
2018-07-20T01:06:49.853Z,95.50
2018-07-20T01:09:17.983Z,95.60
2018-07-20T01:11:46.139Z,95.60
2018-07-20T01:14:14.285Z,95.70
2018-07-20T01:16:42.538Z,95.60
2018-07-20T01:19:10.691Z,95.50
2018-07-20T01:21:38.837Z,95.70
2018-07-20T01:24:07.189Z,95.80
2018-07-20T01:26:35.354Z,96.20
2018-07-20T01:29:03.501Z,96.00
2018-07-20T01:31:31.663Z,95.90
2018-07-20T01:33:59.817Z,96.10
2018-07-20T01:36:27.969Z,96.30
2018-07-20T01:38:56.136Z,96.30
2018-07-20T01:41:24.322Z,96.40
2018-07-20T01:43:52.532Z,96.40
2018-07-20T01:46:20.668Z,96.40
2018-07-20T01:48:48.850Z,96.40
2018-07-20T01:51:16.998Z,96.70
2018-07-20T01:53:45.168Z,96.30
2018-07-20T01:56:13.314Z,96.30
2018-07-20T01:58:41.491Z,96.40
2018-07-20T02:01:09.664Z,96.50
2018-07-20T02:03:37.822Z,96.70
2018-07-20T02:06:06.286Z,96.70
2018-07-20T02:08:34.443Z,96.80
2018-07-20T02:11:02.589Z,97.10
2018-07-20T02:13:30.745Z,96.80
2018-07-20T02:15:59.099Z,96.90
2018-07-20T02:18:27.284Z,96.70
2018-07-20T02:20:55.426Z,96.70
2018-07-20T02:23:24.155Z,96.70
2018-07-20T02:28:20.605Z,96.80
2018-07-20T02:30:48.759Z,96.80
2018-07-20T02:33:16.915Z,96.80
2018-07-20T02:35:45.077Z,97.00
2018-07-20T02:38:13.225Z,97.00
2018-07-20T02:40:41.378Z,97.00
2018-07-20T02:43:09.527Z,97.30
2018-07-20T02:45:37.678Z,97.60
2018-07-20T02:48:05.937Z,97.10
2018-07-20T02:50:34.111Z,97.10
2018-07-20T02:55:30.271Z,97.20
2018-07-20T02:57:58.418Z,97.30
2018-07-20T03:00:26.581Z,97.20
2018-07-20T03:02:54.717Z,97.10
2018-07-20T03:05:22.886Z,97.10
2018-07-20T03:07:51.034Z,97.00
2018-07-20T03:10:19.191Z,97.20
2018-07-20T03:12:47.343Z,97.50
2018-07-20T03:15:15.502Z,97.50
2018-07-20T03:17:43.657Z,97.60
2018-07-20T03:20:11.810Z,97.70
2018-07-20T03:22:39.954Z,97.80
2018-07-20T03:25:08.110Z,97.80
2018-07-20T03:27:42.721Z,97.80
2018-07-20T03:30:10.894Z,97.70
2018-07-20T03:35:07.154Z,97.70
2018-07-20T03:37:35.613Z,97.60
2018-07-20T03:40:03.999Z,97.40
2018-07-20T03:42:32.221Z,97.50
2018-07-20T03:45:00.367Z,97.70
2018-07-20T03:49:56.510Z,97.80
2018-07-20T03:52:24.658Z,97.80
2018-07-20T03:54:52.816Z,97.80
2018-07-20T03:57:20.971Z,97.90
2018-07-20T03:59:49.105Z,97.90
2018-07-20T04:02:17.311Z,97.90
2018-07-20T04:04:45.428Z,98.00
2018-07-20T04:07:13.603Z,97.90
2018-07-20T04:09:41.763Z,97.90
2018-07-20T04:12:10.346Z,98.00
2018-07-20T04:14:38.513Z,98.00
2018-07-20T04:17:06.706Z,98.10
2018-07-20T04:19:34.869Z,98.20
2018-07-20T04:22:03.022Z,98.20
2018-07-20T04:24:31.182Z,98.20
2018-07-20T04:26:59.334Z,98.20
2018-07-20T04:29:27.497Z,98.50
2018-07-20T04:31:55.659Z,98.40
2018-07-20T04:34:23.806Z,98.30
2018-07-20T04:36:52.007Z,98.40
2018-07-20T04:41:48.078Z,98.70
2018-07-20T04:44:16.221Z,98.80
2018-07-20T04:49:12.586Z,98.80
2018-07-20T04:51:40.771Z,99.00
2018-07-20T04:54:08.913Z,98.80
2018-07-20T04:56:37.077Z,98.80
2018-07-20T04:59:05.241Z,98.80
2018-07-20T05:01:33.382Z,98.90
2018-07-20T05:04:01.519Z,99.00
2018-07-20T05:06:29.626Z,98.80
2018-07-20T05:08:57.796Z,98.60
2018-07-20T05:11:25.967Z,98.50
2018-07-20T05:13:54.046Z,98.80
2018-07-20T05:18:50.145Z,99.00
2018-07-20T05:21:18.278Z,99.20
2018-07-20T05:23:46.433Z,99.40
2018-07-20T05:26:14.574Z,99.40
2018-07-20T05:28:42.769Z,99.20
2018-07-20T05:31:10.971Z,99.20
2018-07-20T05:33:39.100Z,99.10
2018-07-20T05:36:07.238Z,99.00
2018-07-20T05:41:03.314Z,99.10
2018-07-20T05:43:31.470Z,99.10
2018-07-20T05:45:59.602Z,99.10
2018-07-20T05:48:27.797Z,99.00
2018-07-20T05:50:55.986Z,98.90
2018-07-20T05:53:24.143Z,99.30
2018-07-20T05:55:52.270Z,99.30
2018-07-20T05:58:20.395Z,99.10
2018-07-20T06:00:48.547Z,99.10
2018-07-20T06:03:16.681Z,99.20
2018-07-20T06:08:12.829Z,98.80
2018-07-20T06:10:41.022Z,98.90
2018-07-20T06:13:09.166Z,99.00
2018-07-20T06:15:37.313Z,99.10
2018-07-20T06:18:05.431Z,99.00
2018-07-20T06:20:33.568Z,99.10
2018-07-20T06:23:01.720Z,99.20
2018-07-20T06:25:29.850Z,98.90
2018-07-20T06:27:57.971Z,98.80
2018-07-20T06:30:26.127Z,98.80
2018-07-20T06:32:54.258Z,98.70
2018-07-20T06:35:22.394Z,98.20
2018-07-20T06:37:50.529Z,98.10
2018-07-20T06:40:18.669Z,98.00
2018-07-20T06:42:46.830Z,97.80
2018-07-20T06:45:15.017Z,97.70
2018-07-20T06:47:43.150Z,97.90
2018-07-20T06:50:15.447Z,98.00
2018-07-20T06:52:43.914Z,97.50
2018-07-20T06:55:12.033Z,97.70
2018-07-20T06:57:40.186Z,97.50
2018-07-20T07:00:08.962Z,97.00
2018-07-20T07:02:37.103Z,97.10
2018-07-20T07:05:06.079Z,98.20
2018-07-20T07:07:34.313Z,97.00
2018-07-20T07:10:02.457Z,96.60
2018-07-20T07:12:30.578Z,97.10
2018-07-20T07:14:58.948Z,96.50
2018-07-20T07:17:26.989Z,96.40
2018-07-20T07:19:55.177Z,96.30
2018-07-20T07:22:23.387Z,96.40
2018-07-20T07:24:51.542Z,96.30
2018-07-20T07:27:19.683Z,96.60
2018-07-20T07:29:47.807Z,96.60
2018-07-20T07:32:15.934Z,96.60
2018-07-20T07:34:44.062Z,96.40
2018-07-20T07:37:12.196Z,95.40
2018-07-20T07:39:40.387Z,95.50
2018-07-20T07:42:08.571Z,95.90
2018-07-20T07:44:36.643Z,95.50
2018-07-20T07:47:04.914Z,95.60
2018-07-20T07:49:33.026Z,95.30
2018-07-20T07:52:01.179Z,95.60
2018-07-20T07:54:29.302Z,95.00
2018-07-20T07:56:57.424Z,95.10
2018-07-20T07:59:25.558Z,94.40
2018-07-20T08:01:53.738Z,94.50
2018-07-20T08:04:21.861Z,94.60
2018-07-20T08:06:49.973Z,94.00
2018-07-20T08:09:18.098Z,94.70
2018-07-20T08:11:46.210Z,94.10
2018-07-20T08:14:14.337Z,93.80
2018-07-20T08:16:42.470Z,93.10
2018-07-20T08:19:10.587Z,92.30
2018-07-20T08:21:38.705Z,92.20
2018-07-20T08:24:07.206Z,92.60
2018-07-20T08:26:35.343Z,92.70
2018-07-20T08:29:03.482Z,92.80
2018-07-20T08:31:31.598Z,92.70
2018-07-20T08:33:59.728Z,92.90
2018-07-20T08:36:27.851Z,92.10
2018-07-20T08:38:56.002Z,91.80
2018-07-20T08:41:24.154Z,92.30
2018-07-20T08:43:52.278Z,92.30
2018-07-20T08:46:20.407Z,92.30
2018-07-20T08:48:48.519Z,92.40
2018-07-20T08:51:16.641Z,91.80
2018-07-20T08:53:44.760Z,92.40
2018-07-20T08:56:12.930Z,92.20
2018-07-20T08:58:41.038Z,90.80
2018-07-20T09:01:09.266Z,90.90
2018-07-20T09:03:37.449Z,90.70
2018-07-20T09:06:05.530Z,90.60
2018-07-20T09:08:33.654Z,90.50
2018-07-20T09:11:01.803Z,90.00
2018-07-20T09:13:29.922Z,89.20
2018-07-20T09:15:58.038Z,89.60
2018-07-20T09:18:26.165Z,90.10
2018-07-20T09:20:54.309Z,90.00
2018-07-20T09:23:22.415Z,87.30
2018-07-20T09:25:50.556Z,90.20
2018-07-20T09:28:18.693Z,89.90
2018-07-20T09:30:46.823Z,89.70
2018-07-20T09:33:14.933Z,90.00
2018-07-20T09:35:43.082Z,89.60
2018-07-20T09:38:11.255Z,90.10
2018-07-20T09:40:39.630Z,90.10
2018-07-20T09:43:07.745Z,89.70
2018-07-20T09:45:35.863Z,88.30
2018-07-20T09:48:04.007Z,89.60
2018-07-20T09:50:32.119Z,89.80
2018-07-20T09:53:00.242Z,89.80
2018-07-20T09:55:28.398Z,88.30
2018-07-20T09:57:56.574Z,88.50
2018-07-20T10:00:30.250Z,88.00
2018-07-20T10:02:58.390Z,86.50
2018-07-20T10:05:26.594Z,87.30
2018-07-20T10:07:54.718Z,88.40
2018-07-20T10:10:22.840Z,90.40
2018-07-20T10:12:50.970Z,89.60
2018-07-20T10:15:19.081Z,90.60
2018-07-20T10:17:47.207Z,90.50
2018-07-20T10:20:15.343Z,89.50
2018-07-20T10:22:43.533Z,89.80
2018-07-20T10:25:11.714Z,87.50
2018-07-20T10:27:39.839Z,86.60
2018-07-20T10:30:08.011Z,87.80
2018-07-20T10:32:36.294Z,87.50
2018-07-20T10:35:04.510Z,87.60
2018-07-20T10:37:32.640Z,87.20
2018-07-20T10:40:00.860Z,88.20
2018-07-20T10:42:28.974Z,87.30
2018-07-20T10:44:57.090Z,87.80
2018-07-20T10:47:25.250Z,86.70
2018-07-20T10:49:53.473Z,87.30
2018-07-20T10:52:21.606Z,85.80
2018-07-20T10:54:49.737Z,87.50
2018-07-20T10:57:17.867Z,87.40
2018-07-20T10:59:46.071Z,84.20
2018-07-20T11:02:14.230Z,85.90
2018-07-20T11:04:42.374Z,84.90
2018-07-20T11:07:10.526Z,85.90
2018-07-20T11:12:07.414Z,84.70
2018-07-20T11:14:35.577Z,84.70
2018-07-20T11:17:03.753Z,85.50
2018-07-20T11:19:31.914Z,82.80
2018-07-20T11:22:00.084Z,86.20
2018-07-20T11:24:28.255Z,82.00
2018-07-20T11:26:56.434Z,83.70
2018-07-20T11:29:24.742Z,83.90
2018-07-20T11:31:52.922Z,83.10
2018-07-20T11:34:21.094Z,83.10
2018-07-20T11:36:49.230Z,82.60
2018-07-20T11:39:17.410Z,84.50
2018-07-20T11:41:45.585Z,85.70
2018-07-20T11:44:13.701Z,86.20
2018-07-20T11:46:41.918Z,84.40
2018-07-20T11:49:10.087Z,85.10
2018-07-20T11:51:38.226Z,82.20
2018-07-20T11:54:06.365Z,83.90
2018-07-20T11:56:34.521Z,84.80
2018-07-20T11:59:02.691Z,82.80
2018-07-20T12:01:30.881Z,83.90
2018-07-20T12:03:59.004Z,84.70
2018-07-20T12:06:27.160Z,83.40
2018-07-20T12:08:55.280Z,84.00
2018-07-20T12:11:23.409Z,82.10
2018-07-20T12:13:51.734Z,83.00
2018-07-20T12:16:19.874Z,84.00
2018-07-20T12:18:47.997Z,83.00
2018-07-20T12:21:16.326Z,83.30
2018-07-20T12:23:44.550Z,80.90
2018-07-20T12:26:12.710Z,81.70
2018-07-20T12:28:40.814Z,81.30
2018-07-20T12:31:08.933Z,82.50
2018-07-20T12:33:37.053Z,80.40
2018-07-20T12:36:05.297Z,82.20
2018-07-20T12:38:33.447Z,81.80
2018-07-20T12:41:01.691Z,80.90
2018-07-20T12:43:29.813Z,80.50
2018-07-20T12:45:57.997Z,82.30
2018-07-20T12:48:26.111Z,80.50
2018-07-20T12:50:54.245Z,81.90
2018-07-20T12:53:22.371Z,81.40
2018-07-20T12:55:50.514Z,81.40
2018-07-20T12:58:18.628Z,82.50
2018-07-20T13:00:46.783Z,81.80
2018-07-20T13:03:14.964Z,82.10
2018-07-20T13:05:43.094Z,79.70
2018-07-20T13:08:11.264Z,81.70
2018-07-20T13:10:39.398Z,81.80
2018-07-20T13:13:07.572Z,82.20
2018-07-20T13:15:35.706Z,81.10
2018-07-20T13:18:03.933Z,81.00
2018-07-20T13:20:32.009Z,81.20
2018-07-20T13:23:00.150Z,78.30
2018-07-20T13:25:28.584Z,79.40
2018-07-20T13:27:56.725Z,80.90
2018-07-20T13:30:24.858Z,80.50
2018-07-20T13:32:52.990Z,80.10
2018-07-20T13:35:21.178Z,80.30
2018-07-20T13:37:49.578Z,78.50
2018-07-20T13:40:17.721Z,76.60
2018-07-20T13:42:45.889Z,77.40
2018-07-20T13:45:14.026Z,77.60
2018-07-20T13:47:42.260Z,77.30
2018-07-20T13:50:10.418Z,75.50
2018-07-20T13:52:38.592Z,75.00
2018-07-20T13:55:06.722Z,76.10
2018-07-20T13:57:34.895Z,74.90
2018-07-20T14:00:03.062Z,73.10
2018-07-20T14:02:31.209Z,74.30
2018-07-20T14:04:59.353Z,74.20
2018-07-20T14:07:27.527Z,75.60
2018-07-20T14:09:55.685Z,75.50
2018-07-20T14:12:23.826Z,77.60
2018-07-20T14:14:51.977Z,76.70
2018-07-20T14:17:20.118Z,72.70
2018-07-20T14:19:48.407Z,74.70
2018-07-20T14:22:16.567Z,74.80
2018-07-20T14:24:44.856Z,73.40
2018-07-20T14:27:12.982Z,73.10
2018-07-20T14:29:41.166Z,74.10
2018-07-20T14:32:09.299Z,75.50
2018-07-20T14:34:37.442Z,72.00
2018-07-20T14:37:06.165Z,71.20
2018-07-20T14:39:34.369Z,72.40
2018-07-20T14:42:02.457Z,71.00
2018-07-20T14:44:30.611Z,72.40
2018-07-20T14:46:58.744Z,75.40
2018-07-20T14:49:26.894Z,77.50
2018-07-20T14:51:55.077Z,73.20
2018-07-20T14:54:23.240Z,76.20
2018-07-20T14:56:51.434Z,77.60
2018-07-20T14:59:19.602Z,75.70
2018-07-20T15:01:47.747Z,77.50
2018-07-20T15:04:15.884Z,78.70
2018-07-20T15:06:44.034Z,78.50
2018-07-20T15:09:13.078Z,75.80
2018-07-20T15:11:41.354Z,77.20
2018-07-20T15:14:09.942Z,76.20
2018-07-20T15:16:38.097Z,74.30
2018-07-20T15:19:06.398Z,74.60
2018-07-20T15:21:34.789Z,74.30
2018-07-20T15:24:03.006Z,75.10
2018-07-20T15:26:31.355Z,75.00
2018-07-20T15:28:59.724Z,76.20
2018-07-20T15:31:28.218Z,76.90
2018-07-20T15:33:56.373Z,75.50
2018-07-20T15:36:24.569Z,74.80
2018-07-20T15:38:52.702Z,75.40
2018-07-20T15:41:21.313Z,77.50
2018-07-20T15:43:49.488Z,76.10
2018-07-20T15:46:17.799Z,76.50
2018-07-20T15:48:45.881Z,75.70
2018-07-20T15:51:14.011Z,76.70
2018-07-20T15:53:42.238Z,77.60
2018-07-20T15:56:10.441Z,75.80
2018-07-20T15:58:38.659Z,74.90
2018-07-20T16:01:07.101Z,75.90
2018-07-20T16:03:35.229Z,76.00
2018-07-20T16:06:03.407Z,74.60
2018-07-20T16:08:31.536Z,74.10
2018-07-20T16:10:59.711Z,76.70
2018-07-20T16:13:27.842Z,76.70
2018-07-20T16:15:56.011Z,79.70
2018-07-20T16:18:24.208Z,78.20
2018-07-20T16:20:52.370Z,76.80
2018-07-20T16:23:21.547Z,77.20
2018-07-20T16:25:49.729Z,73.90
2018-07-20T16:28:18.067Z,74.60
2018-07-20T16:30:46.278Z,75.00
2018-07-20T16:33:14.436Z,80.70
2018-07-20T16:35:42.575Z,73.70
2018-07-20T16:38:10.740Z,74.10
2018-07-20T16:40:38.922Z,75.00
2018-07-20T16:43:07.114Z,72.90
2018-07-20T16:45:35.242Z,74.00
2018-07-20T16:48:03.382Z,71.20
2018-07-20T16:50:31.541Z,71.00
2018-07-20T16:52:59.682Z,73.80
2018-07-20T16:55:27.819Z,70.30
2018-07-20T16:57:55.962Z,69.60
2018-07-20T17:00:24.113Z,70.40
2018-07-20T17:02:52.264Z,70.10
2018-07-20T17:05:20.376Z,68.90
2018-07-20T17:07:48.515Z,70.50
2018-07-20T17:10:16.637Z,71.00
2018-07-20T17:12:44.798Z,68.50
2018-07-20T17:15:12.910Z,70.40
2018-07-20T17:17:41.034Z,69.00
2018-07-20T17:20:09.197Z,70.10
2018-07-20T17:22:37.316Z,67.90
2018-07-20T17:25:05.581Z,67.00
2018-07-20T17:27:33.706Z,67.80
2018-07-20T17:32:29.750Z,70.40
2018-07-20T17:34:57.870Z,74.30
2018-07-20T17:37:26.158Z,74.20
2018-07-20T17:39:54.266Z,75.10
2018-07-20T17:42:22.407Z,73.90
2018-07-20T17:44:50.570Z,73.00
2018-07-20T17:47:18.723Z,74.50
2018-07-20T17:49:46.867Z,71.80
2018-07-20T17:52:15.175Z,74.70
2018-07-20T17:54:43.353Z,73.30
2018-07-20T17:57:11.479Z,74.50
2018-07-20T17:59:39.622Z,73.10
2018-07-20T18:02:07.771Z,72.60
2018-07-20T18:04:36.176Z,73.60
2018-07-20T18:07:04.322Z,73.60
2018-07-20T18:09:32.457Z,72.60
2018-07-20T18:12:00.594Z,69.60
2018-07-20T18:14:28.758Z,71.90
2018-07-20T18:16:56.906Z,73.30
2018-07-20T18:19:25.050Z,73.10
2018-07-20T18:21:53.225Z,72.60
2018-07-20T18:24:21.682Z,75.00
2018-07-20T18:26:49.899Z,74.70
2018-07-20T18:29:17.967Z,74.20
2018-07-20T18:31:46.118Z,76.30
2018-07-20T18:34:14.257Z,74.90
2018-07-20T18:36:42.398Z,75.60
2018-07-20T18:39:11.774Z,75.00
2018-07-20T18:41:40.783Z,74.90
2018-07-20T18:44:09.257Z,73.20
2018-07-20T18:46:37.762Z,74.90
2018-07-20T18:49:05.934Z,75.10
2018-07-20T18:51:34.097Z,75.50
2018-07-20T18:54:02.238Z,74.80
2018-07-20T18:56:30.378Z,75.90
2018-07-20T18:58:58.638Z,75.90
2018-07-20T19:01:26.771Z,76.10
2018-07-20T19:03:54.914Z,75.80
2018-07-20T19:06:23.158Z,77.10
2018-07-20T19:08:51.277Z,76.60
2018-07-20T19:11:19.458Z,76.90
2018-07-20T19:13:47.596Z,76.90
2018-07-20T19:16:15.737Z,77.00
2018-07-20T19:18:43.895Z,77.10
2018-07-20T19:21:12.019Z,77.30
2018-07-20T19:23:40.336Z,77.30
2018-07-20T19:26:08.404Z,77.40
2018-07-20T19:28:36.525Z,78.50
2018-07-20T19:31:04.654Z,77.80
2018-07-20T19:33:32.786Z,77.90
2018-07-20T19:36:00.931Z,78.10
2018-07-20T19:38:29.175Z,77.50
2018-07-20T19:40:57.319Z,77.90
2018-07-20T19:43:25.482Z,78.20
2018-07-20T19:45:53.629Z,77.50
2018-07-20T19:50:49.659Z,78.90
2018-07-20T19:53:17.813Z,78.50
2018-07-20T19:55:45.949Z,78.40
2018-07-20T19:58:14.081Z,78.30
2018-07-20T20:00:42.214Z,78.40
2018-07-20T20:03:10.379Z,78.70
2018-07-20T20:05:38.706Z,78.70
2018-07-20T20:08:06.946Z,78.40
2018-07-20T20:10:35.104Z,78.90
2018-07-20T20:13:03.390Z,78.90
2018-07-20T20:15:31.693Z,79.20
2018-07-20T20:18:00.011Z,79.10
2018-07-20T20:20:28.174Z,79.10
2018-07-20T20:22:56.310Z,79.20
2018-07-20T20:25:24.507Z,79.70
2018-07-20T20:27:52.692Z,79.50
2018-07-20T20:30:20.858Z,79.60
2018-07-20T20:32:49.023Z,79.60
2018-07-20T20:35:17.183Z,79.30
2018-07-20T20:37:45.319Z,78.70
2018-07-20T20:40:13.482Z,79.10
2018-07-20T20:42:41.625Z,78.80
2018-07-20T20:45:09.987Z,83.50
2018-07-20T20:47:38.316Z,80.20
2018-07-20T20:50:06.942Z,79.20
2018-07-20T20:52:35.546Z,79.30
2018-07-20T20:55:03.698Z,79.00
2018-07-20T20:57:31.865Z,78.20
2018-07-20T21:00:00.103Z,78.40
2018-07-20T21:02:28.239Z,79.20
2018-07-20T21:04:56.526Z,79.00
2018-07-20T21:07:24.661Z,79.80
2018-07-20T21:09:52.834Z,79.50
2018-07-20T21:12:21.179Z,79.60
2018-07-20T21:14:49.321Z,80.40
2018-07-20T21:17:17.453Z,81.20
2018-07-20T21:19:45.678Z,81.00
2018-07-20T21:22:13.905Z,81.20
2018-07-20T21:24:42.039Z,82.20
2018-07-20T21:27:10.176Z,84.30
2018-07-20T21:29:38.403Z,85.60
2018-07-20T21:32:06.717Z,88.40
2018-07-20T21:34:35.066Z,88.50
2018-07-20T21:37:03.446Z,88.60
2018-07-20T21:39:31.597Z,87.90
2018-07-20T21:41:59.686Z,87.40
2018-07-20T21:44:27.826Z,87.70
2018-07-20T21:46:55.949Z,87.90
2018-07-20T21:49:24.074Z,88.50
2018-07-20T21:51:52.187Z,89.10
2018-07-20T21:54:20.309Z,89.00
2018-07-20T21:56:48.434Z,90.10
2018-07-20T21:59:16.549Z,90.80
2018-07-20T22:01:44.725Z,91.30
2018-07-20T22:04:12.842Z,92.10
2018-07-20T22:06:40.981Z,92.40
2018-07-20T22:09:10.475Z,92.50
2018-07-20T22:11:38.652Z,92.90
2018-07-20T22:14:06.951Z,92.90
2018-07-20T22:16:35.523Z,92.80
2018-07-20T22:19:03.898Z,92.70
2018-07-20T22:21:32.034Z,92.50
2018-07-20T22:24:00.165Z,93.00
2018-07-20T22:26:28.318Z,92.60
2018-07-20T22:28:56.473Z,92.10
2018-07-20T22:31:24.638Z,92.20
2018-07-20T22:33:52.778Z,91.90
2018-07-20T22:36:20.913Z,91.90
2018-07-20T22:38:49.081Z,91.80
2018-07-20T22:41:17.232Z,92.00
2018-07-20T22:43:45.399Z,92.00
2018-07-20T22:46:13.567Z,91.70
2018-07-20T22:51:09.691Z,91.70
2018-07-20T22:53:37.839Z,91.80
2018-07-20T22:56:05.985Z,91.90
2018-07-20T22:58:34.129Z,92.10
2018-07-20T23:01:02.279Z,92.40
2018-07-20T23:03:30.419Z,92.60
2018-07-20T23:05:58.579Z,92.60
2018-07-20T23:08:26.723Z,92.80
2018-07-20T23:10:54.865Z,93.10
2018-07-20T23:13:23.001Z,93.20
2018-07-20T23:15:51.154Z,93.40
2018-07-20T23:18:19.286Z,93.40
2018-07-20T23:20:47.454Z,93.40
2018-07-20T23:23:15.598Z,93.40
2018-07-20T23:25:44.569Z,93.90
2018-07-20T23:28:12.790Z,93.60
2018-07-20T23:30:40.966Z,93.70
2018-07-20T23:33:09.117Z,93.60
2018-07-20T23:35:37.351Z,93.60
2018-07-20T23:38:05.727Z,93.60
2018-07-20T23:40:33.869Z,93.70
2018-07-20T23:43:02.018Z,93.80
2018-07-20T23:45:30.167Z,93.90
2018-07-20T23:47:58.332Z,94.00
2018-07-20T23:50:26.458Z,94.20
2018-07-20T23:52:54.618Z,94.10
2018-07-20T23:55:22.761Z,94.20
2018-07-20T23:57:50.909Z,94.20
